createdAt,value
2023-04-13T00:00:35.164Z,0.70
2023-04-13T00:03:04.266Z,0.82
2023-04-13T00:05:34.634Z,0.70
2023-04-13T00:08:04.802Z,0.57
2023-04-13T00:10:36.110Z,0.50
2023-04-13T00:13:05.315Z,0.80
2023-04-13T00:15:36.732Z,0.60
2023-04-13T00:18:05.760Z,0.60
2023-04-13T00:20:34.388Z,0.90
2023-04-13T00:23:04.737Z,0.70
2023-04-13T00:25:33.496Z,0.60
2023-04-13T00:28:06.294Z,0.52
2023-04-13T00:30:35.122Z,0.85
2023-04-13T00:33:06.459Z,0.52
2023-04-13T00:35:35.457Z,0.68
2023-04-13T00:38:05.336Z,0.70
2023-04-13T00:40:33.931Z,0.80
2023-04-13T00:43:02.612Z,0.40
2023-04-13T00:45:31.324Z,0.60
2023-04-13T00:48:00.114Z,0.73
2023-04-13T00:50:29.219Z,0.73
2023-04-13T00:52:58.243Z,0.50
2023-04-13T00:55:28.786Z,0.63
2023-04-13T00:57:59.490Z,0.68
2023-04-13T01:00:28.165Z,0.70
2023-04-13T01:02:57.412Z,0.65
2023-04-13T01:05:29.504Z,0.75
2023-04-13T01:08:08.992Z,0.63
2023-04-13T01:10:48.433Z,0.70
2023-04-13T01:13:21.827Z,0.75
2023-04-13T01:16:02.336Z,0.70
2023-04-13T01:18:38.008Z,0.95
2023-04-13T01:21:09.784Z,0.70
2023-04-13T01:23:50.782Z,0.70
2023-04-13T01:26:22.632Z,1.10
2023-04-13T01:28:54.232Z,0.70
2023-04-13T01:31:23.231Z,0.70
2023-04-13T01:33:51.762Z,0.55
2023-04-13T01:36:20.926Z,0.50
2023-04-13T01:38:50.161Z,0.90
2023-04-13T01:41:19.132Z,0.50
2023-04-13T01:43:47.896Z,0.70
2023-04-13T01:46:22.040Z,0.47
2023-04-13T01:49:21.311Z,0.75
2023-04-13T01:52:13.547Z,0.50
2023-04-13T01:54:45.569Z,0.70
2023-04-13T01:57:15.893Z,0.70
2023-04-13T01:59:45.224Z,0.60
2023-04-13T02:02:19.913Z,0.65
2023-04-13T02:04:50.293Z,0.40
2023-04-13T02:07:18.912Z,0.60
2023-04-13T02:09:50.287Z,0.60
2023-04-13T02:12:18.917Z,0.50
2023-04-13T02:14:48.618Z,0.70
2023-04-13T02:17:17.513Z,0.52
2023-04-13T02:19:47.430Z,0.40
2023-04-13T02:22:16.497Z,0.57
2023-04-13T02:24:45.078Z,0.50
2023-04-13T02:27:13.651Z,0.57
2023-04-13T02:29:42.873Z,0.40
2023-04-13T02:32:11.622Z,0.80
2023-04-13T02:34:40.564Z,0.70
2023-04-13T02:37:11.986Z,0.52
2023-04-13T02:39:40.675Z,1.02
2023-04-13T02:42:11.765Z,0.57
2023-04-13T02:44:40.704Z,0.52
2023-04-13T02:47:09.409Z,0.30
2023-04-13T02:49:38.368Z,0.50
2023-04-13T02:52:27.428Z,0.80
2023-04-13T02:55:01.489Z,0.50
2023-04-13T02:57:36.040Z,0.93
2023-04-13T03:00:10.385Z,0.70
2023-04-13T03:02:47.111Z,0.50
2023-04-13T03:05:19.841Z,0.50
2023-04-13T03:07:50.139Z,0.60
2023-04-13T03:10:19.745Z,0.70
2023-04-13T03:12:49.415Z,0.47
2023-04-13T03:15:18.202Z,0.77
2023-04-13T03:17:46.864Z,0.82
2023-04-13T03:20:23.580Z,0.98
2023-04-13T03:23:01.678Z,0.70
2023-04-13T03:25:34.160Z,1.38
2023-04-13T03:28:04.418Z,0.80
2023-04-13T03:30:38.746Z,0.65
2023-04-13T03:33:07.608Z,0.60
2023-04-13T03:35:38.722Z,0.65
2023-04-13T03:38:15.529Z,0.95
2023-04-13T03:40:46.635Z,0.77
2023-04-13T03:43:16.116Z,0.75
2023-04-13T03:45:50.461Z,0.90
2023-04-13T03:48:20.838Z,0.75
2023-04-13T03:50:49.406Z,0.70
2023-04-13T03:53:23.374Z,0.85
2023-04-13T03:55:55.387Z,0.82
2023-04-13T03:58:24.188Z,0.75
2023-04-13T04:00:54.001Z,0.70
2023-04-13T04:03:30.465Z,0.90
2023-04-13T04:06:04.336Z,1.10
2023-04-13T04:08:34.305Z,0.60
2023-04-13T04:11:07.418Z,0.90
2023-04-13T04:13:36.577Z,0.60
2023-04-13T04:16:11.546Z,0.60
2023-04-13T04:18:45.555Z,0.65
2023-04-13T04:21:21.636Z,0.82
2023-04-13T04:23:52.211Z,0.80
2023-04-13T04:26:25.663Z,0.93
2023-04-13T04:29:02.424Z,0.60
2023-04-13T04:31:36.810Z,0.70
2023-04-13T04:34:10.580Z,0.70
2023-04-13T04:36:43.117Z,0.68
2023-04-13T04:39:14.456Z,0.90
2023-04-13T04:41:54.136Z,1.08
2023-04-13T04:44:25.259Z,0.85
2023-04-13T04:46:54.332Z,0.93
2023-04-13T04:49:23.501Z,1.08
2023-04-13T04:51:53.091Z,0.73
2023-04-13T04:54:24.101Z,1.08
2023-04-13T04:56:52.878Z,0.70
2023-04-13T04:59:23.960Z,0.77
2023-04-13T05:02:02.575Z,0.65
2023-04-13T05:04:31.492Z,0.50
2023-04-13T05:07:00.516Z,0.63
2023-04-13T05:09:31.831Z,0.70
2023-04-13T05:12:00.743Z,0.80
2023-04-13T05:14:29.385Z,0.57
2023-04-13T05:16:58.135Z,0.50
2023-04-13T05:19:31.529Z,0.68
2023-04-13T05:22:10.100Z,0.95
2023-04-13T05:24:46.174Z,0.60
2023-04-13T05:27:17.480Z,0.70
2023-04-13T05:29:47.697Z,0.70
2023-04-13T05:32:20.490Z,0.50
2023-04-13T05:34:51.601Z,0.50
2023-04-13T05:37:23.864Z,0.50
2023-04-13T05:39:56.733Z,0.60
2023-04-13T05:42:31.601Z,0.55
2023-04-13T05:45:01.298Z,0.80
2023-04-13T05:47:30.475Z,0.52
2023-04-13T05:50:05.032Z,0.60
2023-04-13T05:52:33.826Z,0.43
2023-04-13T05:55:03.952Z,0.60
2023-04-13T05:57:33.353Z,0.45
2023-04-13T06:00:10.415Z,0.30
2023-04-13T06:02:49.055Z,0.52
2023-04-13T06:05:18.362Z,0.43
2023-04-13T06:07:47.748Z,0.50
2023-04-13T06:10:19.629Z,0.50
2023-04-13T06:12:48.677Z,0.50
2023-04-13T06:15:18.385Z,0.50
2023-04-13T06:17:47.147Z,0.60
2023-04-13T06:20:16.357Z,0.50
2023-04-13T06:22:44.900Z,0.60
2023-04-13T06:25:15.055Z,0.55
2023-04-13T06:27:49.720Z,0.60
2023-04-13T06:30:19.389Z,0.40
2023-04-13T06:32:49.974Z,0.47
2023-04-13T06:35:21.925Z,0.52
2023-04-13T06:37:51.810Z,0.47
2023-04-13T06:40:26.712Z,0.43
2023-04-13T06:43:03.907Z,0.47
2023-04-13T06:45:39.208Z,0.70
2023-04-13T06:48:11.485Z,0.50
2023-04-13T06:50:42.351Z,0.50
2023-04-13T06:53:11.038Z,0.50
2023-04-13T06:55:39.688Z,0.50
2023-04-13T06:58:09.702Z,0.40
2023-04-13T07:00:38.608Z,0.60
2023-04-13T07:03:07.358Z,0.57
2023-04-13T07:05:38.986Z,0.57
2023-04-13T07:08:13.259Z,0.60
2023-04-13T07:10:44.616Z,0.45
2023-04-13T07:13:22.146Z,0.60
2023-04-13T07:15:50.850Z,0.40
2023-04-13T07:18:19.733Z,0.52
2023-04-13T07:20:50.223Z,0.50
2023-04-13T07:23:21.651Z,0.70
2023-04-13T07:25:50.594Z,0.80
2023-04-13T07:28:25.751Z,0.50
2023-04-13T07:30:57.961Z,0.50
2023-04-13T07:33:27.063Z,0.40
2023-04-13T07:35:57.170Z,0.40
2023-04-13T07:38:29.881Z,0.60
2023-04-13T07:40:58.739Z,0.30
2023-04-13T07:43:34.972Z,0.50
2023-04-13T07:46:11.876Z,0.30
2023-04-13T07:48:44.574Z,0.30
2023-04-13T07:51:24.050Z,0.52
2023-04-13T07:53:53.592Z,0.43
2023-04-13T07:56:22.821Z,0.60
2023-04-13T07:58:55.498Z,0.55
2023-04-13T08:01:26.761Z,0.28
2023-04-13T08:03:57.682Z,0.52
2023-04-13T08:06:28.645Z,0.60
2023-04-13T08:08:57.621Z,0.60
2023-04-13T08:11:27.282Z,0.50
2023-04-13T08:14:04.793Z,0.60
2023-04-13T08:16:34.936Z,0.80
2023-04-13T08:19:07.635Z,0.60
2023-04-13T08:21:42.223Z,0.60
2023-04-13T08:24:11.565Z,0.70
2023-04-13T08:26:41.575Z,0.60
2023-04-13T08:29:12.049Z,0.82
2023-04-13T08:31:41.309Z,0.95
2023-04-13T08:34:12.871Z,0.70
2023-04-13T08:36:41.642Z,1.00
2023-04-13T08:39:12.127Z,0.70
2023-04-13T08:41:46.566Z,0.90
2023-04-13T08:44:18.441Z,0.77
2023-04-13T08:46:52.466Z,1.10
2023-04-13T08:49:27.125Z,0.90
2023-04-13T08:52:18.177Z,1.20
2023-04-13T08:54:51.122Z,1.08
2023-04-13T08:57:27.796Z,0.80
2023-04-13T09:00:00.018Z,1.20
2023-04-13T09:02:32.993Z,0.90
2023-04-13T09:05:15.951Z,0.85
2023-04-13T09:07:53.767Z,1.17
2023-04-13T09:10:23.918Z,1.15
2023-04-13T09:12:52.592Z,1.15
2023-04-13T09:15:24.186Z,1.10
2023-04-13T09:18:16.142Z,1.30
2023-04-13T09:20:58.553Z,1.10
2023-04-13T09:23:27.931Z,1.10
2023-04-13T09:26:09.936Z,1.52
2023-04-13T09:28:47.752Z,1.80
2023-04-13T09:31:17.817Z,1.10
2023-04-13T09:33:47.106Z,1.20
2023-04-13T09:36:17.594Z,0.82
2023-04-13T09:38:46.746Z,0.93
2023-04-13T09:41:15.822Z,1.20
2023-04-13T09:43:44.452Z,1.42
2023-04-13T09:46:14.925Z,1.17
2023-04-13T09:48:45.004Z,0.80
2023-04-13T09:51:13.643Z,1.38
2023-04-13T09:53:43.539Z,1.10
2023-04-13T09:56:12.837Z,0.73
2023-04-13T09:58:45.539Z,1.30
2023-04-13T10:01:16.787Z,0.80
2023-04-13T10:03:46.981Z,0.95
2023-04-13T10:06:15.688Z,0.85
2023-04-13T10:08:46.236Z,0.82
2023-04-13T10:11:15.976Z,0.80
2023-04-13T10:13:50.880Z,1.05
2023-04-13T10:16:44.129Z,1.33
2023-04-13T10:19:16.667Z,1.20
2023-04-13T10:21:47.797Z,1.13
2023-04-13T10:24:17.232Z,1.05
2023-04-13T10:26:46.106Z,1.05
2023-04-13T10:29:16.568Z,1.50
2023-04-13T10:31:47.792Z,1.33
2023-04-13T10:34:28.201Z,1.20
2023-04-13T10:36:58.502Z,1.33
2023-04-13T10:39:29.003Z,1.23
2023-04-13T10:42:01.791Z,1.30
2023-04-13T10:44:41.251Z,1.50
2023-04-13T10:47:11.307Z,1.30
2023-04-13T10:49:42.045Z,1.50
2023-04-13T10:52:11.748Z,1.75
2023-04-13T10:54:41.991Z,1.75
2023-04-13T10:57:11.991Z,1.48
2023-04-13T10:59:56.417Z,1.30
2023-04-13T11:02:27.783Z,1.70
2023-04-13T11:04:57.996Z,1.55
2023-04-13T11:07:27.147Z,1.85
2023-04-13T11:10:02.940Z,2.08
2023-04-13T11:12:31.867Z,1.60
2023-04-13T11:15:01.271Z,2.40
2023-04-13T11:17:30.316Z,2.33
2023-04-13T11:20:02.026Z,1.80
2023-04-13T11:22:37.095Z,2.08
2023-04-13T11:25:09.988Z,1.70
2023-04-13T11:27:40.831Z,2.30
2023-04-13T11:30:11.041Z,2.25
2023-04-13T11:32:43.143Z,1.60
2023-04-13T11:35:15.005Z,1.35
2023-04-13T11:37:45.798Z,1.42
2023-04-13T11:40:20.231Z,2.00
2023-04-13T11:42:50.643Z,1.45
2023-04-13T11:45:21.795Z,1.75
2023-04-13T11:47:51.696Z,1.65
2023-04-13T11:50:22.463Z,1.45
2023-04-13T11:52:56.350Z,1.50
2023-04-13T11:55:26.000Z,1.88
2023-04-13T11:57:55.421Z,1.83
2023-04-13T12:00:26.485Z,1.67
2023-04-13T12:03:02.067Z,1.80
2023-04-13T12:05:34.207Z,1.75
2023-04-13T12:08:04.855Z,1.55
2023-04-13T12:10:41.395Z,1.85
2023-04-13T12:13:22.946Z,1.70
2023-04-13T12:16:08.786Z,1.30
2023-04-13T12:18:57.955Z,1.65
2023-04-13T12:21:29.132Z,1.45
2023-04-13T12:24:00.324Z,1.98
2023-04-13T12:27:16.410Z,1.75
2023-04-13T12:29:23.532Z,1.40
2023-04-13T12:31:52.209Z,1.67
2023-04-13T12:34:21.971Z,1.77
2023-04-13T12:36:51.997Z,1.73
2023-04-13T12:39:21.018Z,1.40
2023-04-13T12:41:49.530Z,1.50
2023-04-13T12:44:18.156Z,1.60
2023-04-13T12:46:46.842Z,1.88
2023-04-13T12:49:15.598Z,1.70
2023-04-13T12:51:44.157Z,1.50
2023-04-13T12:54:14.669Z,1.60
2023-04-13T12:56:43.257Z,1.60
2023-04-13T12:59:12.072Z,1.70
2023-04-13T13:01:40.825Z,1.80
2023-04-13T13:04:09.436Z,1.80
2023-04-13T13:06:38.483Z,1.70
2023-04-13T13:09:07.635Z,1.73
2023-04-13T13:11:37.599Z,1.23
2023-04-13T13:14:06.257Z,1.80
2023-04-13T13:16:35.029Z,1.42
2023-04-13T13:19:03.924Z,1.58
2023-04-13T13:21:32.629Z,1.70
2023-04-13T13:24:01.272Z,2.25
2023-04-13T13:26:36.590Z,1.98
2023-04-13T13:29:23.900Z,1.83
2023-04-13T13:31:52.824Z,1.60
2023-04-13T13:34:21.503Z,1.42
2023-04-13T13:36:50.622Z,1.70
2023-04-13T13:39:21.217Z,1.85
2023-04-13T13:41:50.310Z,1.80
2023-04-13T13:44:20.551Z,2.10
2023-04-13T13:46:49.373Z,1.73
2023-04-13T13:49:20.718Z,1.30
2023-04-13T13:52:10.705Z,1.92
2023-04-13T13:54:46.973Z,1.30
2023-04-13T13:57:15.689Z,1.45
2023-04-13T13:59:48.089Z,1.77
2023-04-13T14:02:17.952Z,1.45
2023-04-13T14:04:46.788Z,1.20
2023-04-13T14:07:15.465Z,1.55
2023-04-13T14:09:44.051Z,1.35
2023-04-13T14:12:12.901Z,1.70
2023-04-13T14:14:41.553Z,1.33
2023-04-13T14:17:11.602Z,1.77
2023-04-13T14:19:40.407Z,1.73
2023-04-13T14:22:09.440Z,1.40
2023-04-13T14:24:38.029Z,1.60
2023-04-13T14:27:06.900Z,1.77
2023-04-13T14:29:35.667Z,1.70
2023-04-13T14:32:04.501Z,1.65
2023-04-13T14:34:34.480Z,1.83
2023-04-13T14:37:03.058Z,1.42
2023-04-13T14:39:31.849Z,1.88
2023-04-13T14:42:00.555Z,1.52
2023-04-13T14:44:29.114Z,1.38
2023-04-13T14:46:57.978Z,1.50
2023-04-13T14:49:26.815Z,1.70
2023-04-13T14:51:56.691Z,1.42
2023-04-13T14:54:25.320Z,0.95
2023-04-13T14:56:54.221Z,1.40
2023-04-13T14:59:22.832Z,1.50
2023-04-13T15:01:51.512Z,1.33
2023-04-13T15:04:20.361Z,1.40
2023-04-13T15:06:49.336Z,0.98
2023-04-13T15:09:19.447Z,1.30
2023-04-13T15:11:49.097Z,1.42
2023-04-13T15:14:17.734Z,1.27
2023-04-13T15:16:46.562Z,1.50
2023-04-13T15:19:15.624Z,1.13
2023-04-13T15:21:44.380Z,1.42
2023-04-13T15:24:13.078Z,1.60
2023-04-13T15:26:43.806Z,1.45
2023-04-13T15:29:12.419Z,1.65
2023-04-13T15:31:41.072Z,1.50
2023-04-13T15:34:09.775Z,1.80
2023-04-13T15:36:38.546Z,1.77
2023-04-13T15:39:07.416Z,1.20
2023-04-13T15:41:36.030Z,1.70
2023-04-13T15:44:06.435Z,1.15
2023-04-13T15:46:35.170Z,1.30
2023-04-13T15:49:03.779Z,1.40
2023-04-13T15:51:32.981Z,1.48
2023-04-13T15:54:01.656Z,1.30
2023-04-13T15:56:30.338Z,1.63
2023-04-13T15:58:59.190Z,1.45
2023-04-13T16:01:29.604Z,1.60
2023-04-13T16:03:58.521Z,1.38
2023-04-13T16:06:27.586Z,1.05
2023-04-13T16:08:56.926Z,1.73
2023-04-13T16:11:28.435Z,1.73
2023-04-13T16:13:58.654Z,1.42
2023-04-13T16:16:27.504Z,1.40
2023-04-13T16:18:58.802Z,1.70
2023-04-13T16:21:30.406Z,1.60
2023-04-13T16:23:59.196Z,1.45
2023-04-13T16:26:28.436Z,1.50
2023-04-13T16:28:57.643Z,1.40
2023-04-13T16:31:26.608Z,1.33
2023-04-13T16:33:56.995Z,1.48
2023-04-13T16:36:26.043Z,1.35
2023-04-13T16:38:54.761Z,1.58
2023-04-13T16:41:23.472Z,1.08
2023-04-13T16:43:52.875Z,1.30
2023-04-13T16:46:21.816Z,1.63
2023-04-13T16:48:50.658Z,1.38
2023-04-13T16:51:20.775Z,1.45
2023-04-13T16:53:49.397Z,1.23
2023-04-13T16:56:19.669Z,1.58
2023-04-13T16:58:48.397Z,1.40
2023-04-13T17:01:16.963Z,1.58
2023-04-13T17:03:45.722Z,1.77
2023-04-13T17:06:14.380Z,1.42
2023-04-13T17:08:44.250Z,1.33
2023-04-13T17:11:12.815Z,1.38
2023-04-13T17:13:41.438Z,1.20
2023-04-13T17:16:10.279Z,1.45
2023-04-13T17:18:39.005Z,1.20
2023-04-13T17:21:08.001Z,1.58
2023-04-13T17:23:37.438Z,1.70
2023-04-13T17:26:07.688Z,1.45
2023-04-13T17:28:36.290Z,1.58
2023-04-13T17:31:05.445Z,1.27
2023-04-13T17:33:34.480Z,1.27
2023-04-13T17:36:03.045Z,1.25
2023-04-13T17:38:31.627Z,1.73
2023-04-13T17:41:00.328Z,1.23
2023-04-13T17:43:30.262Z,1.60
2023-04-13T17:45:58.941Z,1.17
2023-04-13T17:48:27.509Z,1.40
2023-04-13T17:50:56.117Z,1.50
2023-04-13T17:53:24.859Z,1.27
2023-04-13T17:55:53.489Z,1.40
2023-04-13T17:58:22.226Z,1.23
2023-04-13T18:00:52.470Z,1.40
2023-04-13T18:03:21.263Z,1.73
2023-04-13T18:05:49.902Z,1.35
2023-04-13T18:08:18.599Z,2.05
2023-04-13T18:10:47.182Z,1.85
2023-04-13T18:13:15.855Z,1.77
2023-04-13T18:15:48.564Z,2.08
2023-04-13T18:18:18.610Z,1.80
2023-04-13T18:20:47.664Z,2.42
2023-04-13T18:23:16.266Z,1.80
2023-04-13T18:25:44.859Z,1.90
2023-04-13T18:28:13.597Z,1.75
2023-04-13T18:30:42.199Z,1.92
2023-04-13T18:33:11.389Z,2.17
2023-04-13T18:35:44.082Z,2.00
2023-04-13T18:38:13.133Z,2.50
2023-04-13T18:40:41.708Z,3.10
2023-04-13T18:43:10.490Z,2.97
2023-04-13T18:45:39.166Z,3.63
2023-04-13T18:48:09.490Z,3.05
2023-04-13T18:50:38.857Z,2.17
2023-04-13T18:53:08.808Z,1.60
2023-04-13T18:55:37.374Z,1.20
2023-04-13T18:58:05.933Z,1.30
2023-04-13T19:00:34.451Z,1.42
2023-04-13T19:03:03.209Z,1.83
2023-04-13T19:05:33.428Z,1.30
2023-04-13T19:08:04.048Z,1.40
2023-04-13T19:10:34.348Z,1.30
2023-04-13T19:13:03.343Z,1.40
2023-04-13T19:15:32.386Z,1.00
2023-04-13T19:18:01.268Z,1.00
2023-04-13T19:20:30.332Z,1.20
2023-04-13T19:22:58.979Z,1.10
2023-04-13T19:25:27.533Z,1.13
2023-04-13T19:27:57.483Z,1.08
2023-04-13T19:30:26.231Z,1.05
2023-04-13T19:32:55.163Z,1.10
2023-04-13T19:35:24.504Z,1.20
2023-04-13T19:37:53.582Z,1.58
2023-04-13T19:40:23.170Z,1.48
2023-04-13T19:42:51.806Z,1.08
2023-04-13T19:45:21.751Z,1.67
2023-04-13T19:47:50.454Z,1.40
2023-04-13T19:50:19.075Z,1.42
2023-04-13T19:52:50.211Z,1.42
2023-04-13T19:55:18.809Z,1.20
2023-04-13T19:57:47.415Z,1.00
2023-04-13T20:00:20.415Z,0.98
2023-04-13T20:02:53.023Z,1.10
2023-04-13T20:05:22.025Z,0.90
2023-04-13T20:07:50.827Z,1.10
2023-04-13T20:10:19.489Z,1.48
2023-04-13T20:12:48.135Z,1.35
2023-04-13T20:15:16.752Z,1.17
2023-04-13T20:17:47.749Z,1.13
2023-04-13T20:20:17.903Z,1.20
2023-04-13T20:22:46.495Z,1.15
2023-04-13T20:25:15.222Z,1.10
2023-04-13T20:27:44.032Z,1.17
2023-04-13T20:30:13.341Z,1.20
2023-04-13T20:32:42.120Z,1.63
2023-04-13T20:35:11.432Z,1.67
2023-04-13T20:37:41.294Z,1.63
2023-04-13T20:40:11.552Z,2.05
2023-04-13T20:42:42.022Z,2.17
2023-04-13T20:45:12.656Z,3.33
2023-04-13T20:47:42.448Z,1.80
2023-04-13T20:50:12.095Z,1.20
2023-04-13T20:52:42.603Z,1.17
2023-04-13T20:55:11.693Z,1.08
2023-04-13T20:57:42.187Z,1.15
2023-04-13T21:00:15.469Z,1.10
2023-04-13T21:02:45.111Z,1.02
2023-04-13T21:05:13.931Z,1.25
2023-04-13T21:07:43.900Z,1.50
2023-04-13T21:10:12.586Z,1.30
2023-04-13T21:12:41.193Z,1.63
2023-04-13T21:15:10.624Z,2.00
2023-04-13T21:17:39.361Z,1.88
2023-04-13T21:20:09.407Z,2.05
2023-04-13T21:22:38.013Z,1.67
2023-04-13T21:25:08.789Z,1.90
2023-04-13T21:27:37.494Z,2.00
2023-04-13T21:30:07.362Z,2.15
2023-04-13T21:32:35.996Z,2.47
2023-04-13T21:35:05.021Z,3.00
2023-04-13T21:37:33.586Z,3.40
2023-04-13T21:40:02.294Z,3.67
2023-04-13T21:42:32.452Z,3.20
2023-04-13T21:45:01.038Z,3.15
2023-04-13T21:47:29.628Z,2.60
2023-04-13T21:49:58.255Z,2.10
2023-04-13T21:52:26.819Z,1.95
2023-04-13T21:54:55.915Z,2.17
2023-04-13T21:57:24.672Z,2.10
2023-04-13T21:59:56.304Z,1.75
2023-04-13T22:02:25.586Z,1.92
2023-04-13T22:04:54.436Z,2.10
2023-04-13T22:07:35.218Z,1.70
2023-04-13T22:10:10.926Z,1.70
2023-04-13T22:12:39.564Z,1.80
2023-04-13T22:15:10.641Z,1.80
2023-04-13T22:17:41.109Z,1.63
2023-04-13T22:20:10.491Z,1.33
2023-04-13T22:22:39.040Z,1.65
2023-04-13T22:25:08.174Z,1.42
2023-04-13T22:27:37.514Z,1.83
2023-04-13T22:30:07.467Z,1.65
2023-04-13T22:32:37.521Z,1.65
2023-04-13T22:35:07.014Z,1.75
2023-04-13T22:37:35.791Z,1.75
2023-04-13T22:40:04.770Z,1.67
2023-04-13T22:42:33.363Z,1.38
2023-04-13T22:45:03.265Z,1.33
2023-04-13T22:47:31.841Z,2.05
2023-04-13T22:50:01.860Z,1.80
2023-04-13T22:52:30.461Z,1.67
2023-04-13T22:54:59.063Z,2.13
2023-04-13T22:57:27.581Z,1.73
2023-04-13T22:59:56.214Z,1.80
2023-04-13T23:02:24.832Z,1.90
2023-04-13T23:04:53.544Z,1.95
2023-04-13T23:07:23.464Z,2.03
2023-04-13T23:09:53.002Z,2.00
2023-04-13T23:12:21.619Z,2.03
2023-04-13T23:14:50.518Z,1.88
2023-04-13T23:17:19.208Z,1.73
2023-04-13T23:19:47.860Z,1.77
2023-04-13T23:22:16.417Z,2.03
2023-04-13T23:24:46.470Z,1.67
2023-04-13T23:27:15.036Z,2.05
2023-04-13T23:29:45.642Z,1.95
2023-04-13T23:32:14.397Z,1.65
2023-04-13T23:34:42.981Z,1.92
2023-04-13T23:37:11.965Z,2.10
2023-04-13T23:39:40.644Z,1.77
2023-04-13T23:42:10.512Z,1.70
2023-04-13T23:44:39.108Z,1.58
2023-04-13T23:47:07.727Z,1.85
2023-04-13T23:49:36.412Z,1.73
2023-04-13T23:52:05.067Z,2.13
2023-04-13T23:54:33.646Z,1.75
2023-04-13T23:57:02.637Z,1.70
2023-04-13T23:59:32.663Z,1.92
